createdAt,value
2019-03-22T00:00:26.051Z,1.49
2019-03-22T00:02:55.996Z,1.46
2019-03-22T00:05:24.625Z,1.37
2019-03-22T00:07:56.123Z,1.34
2019-03-22T00:10:24.546Z,1.40
2019-03-22T00:12:53.075Z,1.27
2019-03-22T00:15:21.797Z,1.33
2019-03-22T00:17:50.485Z,1.24
2019-03-22T00:20:19.124Z,1.20
2019-03-22T00:22:47.804Z,1.06
2019-03-22T00:25:16.353Z,1.13
2019-03-22T00:27:44.858Z,1.07
2019-03-22T00:30:13.230Z,1.14
2019-03-22T00:32:41.757Z,1.05
2019-03-22T00:35:10.193Z,0.92
2019-03-22T00:37:38.456Z,0.85
2019-03-22T00:40:07.118Z,0.73
2019-03-22T00:42:35.364Z,0.73
2019-03-22T00:45:04.309Z,0.78
2019-03-22T00:47:32.917Z,0.77
2019-03-22T00:50:01.332Z,0.75
2019-03-22T00:52:29.857Z,0.74
2019-03-22T00:54:58.587Z,0.77
2019-03-22T00:57:28.785Z,0.91
2019-03-22T00:59:57.623Z,0.93
2019-03-22T01:02:26.443Z,0.98
2019-03-22T01:04:54.758Z,0.90
2019-03-22T01:07:23.434Z,0.81
2019-03-22T01:09:51.868Z,0.74
2019-03-22T01:12:20.298Z,0.70
2019-03-22T01:14:48.702Z,0.66
2019-03-22T01:17:17.543Z,0.61
2019-03-22T01:19:46.023Z,0.56
2019-03-22T01:22:14.516Z,0.69
2019-03-22T01:24:42.968Z,0.57
2019-03-22T01:27:11.587Z,0.71
2019-03-22T01:29:40.104Z,0.63
2019-03-22T01:32:08.901Z,0.50
2019-03-22T01:34:37.105Z,0.55
2019-03-22T01:37:06.544Z,0.56
2019-03-22T01:39:35.066Z,0.60
2019-03-22T01:42:03.913Z,0.58
2019-03-22T01:44:32.427Z,0.52
2019-03-22T01:47:01.279Z,0.37
2019-03-22T01:49:29.708Z,0.41
2019-03-22T01:51:58.316Z,0.25
2019-03-22T01:54:26.884Z,0.30
2019-03-22T01:56:55.445Z,0.38
2019-03-22T01:59:23.724Z,0.33
2019-03-22T02:01:52.157Z,0.33
2019-03-22T02:04:20.432Z,0.34
2019-03-22T02:06:48.831Z,0.38
2019-03-22T02:09:17.274Z,0.39
2019-03-22T02:11:45.779Z,0.26
2019-03-22T02:14:14.131Z,0.19
2019-03-22T02:16:42.667Z,0.19
2019-03-22T02:19:11.417Z,0.13
2019-03-22T02:21:40.636Z,0.17
2019-03-22T02:24:09.072Z,0.11
2019-03-22T02:26:37.784Z,0.09
2019-03-22T02:29:06.315Z,0.11
2019-03-22T02:31:34.795Z,-0.03
2019-03-22T02:34:03.299Z,-0.05
2019-03-22T02:36:31.888Z,-0.06
2019-03-22T02:39:00.384Z,-0.04
2019-03-22T02:41:28.763Z,0.19
2019-03-22T02:43:57.219Z,0.33
2019-03-22T02:46:25.880Z,0.28
2019-03-22T02:48:54.477Z,0.24
2019-03-22T02:51:23.321Z,0.14
2019-03-22T02:53:51.791Z,0.03
2019-03-22T02:56:20.417Z,-0.04
2019-03-22T02:58:50.245Z,-0.15
2019-03-22T03:01:19.028Z,-0.11
2019-03-22T03:03:47.481Z,-0.04
2019-03-22T03:06:16.126Z,-0.05
2019-03-22T03:08:44.593Z,0.02
2019-03-22T03:11:13.169Z,0.06
2019-03-22T03:13:41.709Z,0.18
2019-03-22T03:16:10.304Z,0.19
2019-03-22T03:18:38.693Z,0.19
2019-03-22T03:21:07.170Z,0.20
2019-03-22T03:23:35.599Z,0.08
2019-03-22T03:26:05.264Z,-0.06
2019-03-22T03:28:37.090Z,-0.29
2019-03-22T03:31:04.466Z,-0.36
2019-03-22T03:33:32.962Z,-0.33
2019-03-22T03:36:01.305Z,-0.26
2019-03-22T03:38:29.866Z,-0.31
2019-03-22T03:40:58.382Z,-0.40
2019-03-22T03:43:26.802Z,-0.47
2019-03-22T03:45:55.148Z,-0.28
2019-03-22T03:48:23.365Z,-0.18
2019-03-22T03:50:51.956Z,-0.32
2019-03-22T03:53:20.784Z,-0.33
2019-03-22T03:55:49.343Z,-0.33
2019-03-22T03:58:18.755Z,-0.31
2019-03-22T04:00:47.358Z,-0.45
2019-03-22T04:03:15.937Z,-0.45
2019-03-22T04:05:44.452Z,-0.40
2019-03-22T04:08:12.979Z,-0.40
2019-03-22T04:10:41.744Z,-0.40
2019-03-22T04:13:10.588Z,-0.40
2019-03-22T04:15:39.440Z,-0.51
2019-03-22T04:18:07.911Z,-0.59
2019-03-22T04:20:36.321Z,-0.59
2019-03-22T04:23:04.842Z,-0.55
2019-03-22T04:25:33.439Z,-0.45
2019-03-22T04:28:02.006Z,-0.56
2019-03-22T04:30:30.568Z,-0.52
2019-03-22T04:32:59.340Z,-0.46
2019-03-22T04:35:27.892Z,-0.43
2019-03-22T04:37:56.359Z,-0.31
2019-03-22T04:40:26.202Z,-0.24
2019-03-22T04:42:56.132Z,-0.28
2019-03-22T04:45:25.579Z,-0.34
2019-03-22T04:47:58.812Z,-0.56
2019-03-22T04:50:29.189Z,-0.68
2019-03-22T04:52:57.747Z,-0.76
2019-03-22T04:55:26.724Z,-0.76
2019-03-22T04:57:55.850Z,-0.72
2019-03-22T05:00:24.491Z,-0.68
2019-03-22T05:02:53.446Z,-0.74
2019-03-22T05:05:22.021Z,-0.73
2019-03-22T05:07:51.481Z,-0.81
2019-03-22T05:10:20.805Z,-0.88
2019-03-22T05:12:49.890Z,-0.90
2019-03-22T05:15:19.503Z,-0.91
2019-03-22T05:17:48.198Z,-0.91
2019-03-22T05:20:17.267Z,-0.94
2019-03-22T05:22:47.334Z,-0.95
2019-03-22T05:25:15.807Z,-0.93
2019-03-22T05:27:45.449Z,-0.86
2019-03-22T05:30:43.690Z,-0.81
2019-03-22T05:33:12.172Z,-0.81
2019-03-22T05:35:40.674Z,-0.82
2019-03-22T05:38:09.373Z,-0.59
2019-03-22T05:40:37.896Z,-0.54
2019-03-22T05:43:06.595Z,-0.48
2019-03-22T05:45:35.091Z,-0.38
2019-03-22T05:48:03.746Z,-0.27
2019-03-22T05:50:32.198Z,-0.07
2019-03-22T05:53:00.683Z,0.20
2019-03-22T05:55:29.390Z,0.37
2019-03-22T05:57:57.591Z,0.53
2019-03-22T06:00:26.080Z,0.59
2019-03-22T06:02:54.561Z,0.96
2019-03-22T06:05:23.148Z,1.15
2019-03-22T06:07:52.066Z,1.35
2019-03-22T06:10:20.526Z,1.53
2019-03-22T06:12:49.180Z,1.84
2019-03-22T06:15:17.581Z,2.06
2019-03-22T06:17:51.588Z,2.27
2019-03-22T06:20:16.543Z,2.67
2019-03-22T06:22:44.962Z,2.87
2019-03-22T06:25:13.451Z,3.02
2019-03-22T06:27:41.825Z,3.23
2019-03-22T06:30:10.391Z,3.38
2019-03-22T06:32:38.987Z,3.74
2019-03-22T06:35:07.560Z,3.78
2019-03-22T06:37:35.952Z,4.28
2019-03-22T06:40:04.765Z,4.56
2019-03-22T06:42:33.405Z,4.79
2019-03-22T06:45:01.924Z,4.98
2019-03-22T06:47:30.407Z,5.16
2019-03-22T06:49:58.837Z,5.44
2019-03-22T06:52:27.545Z,5.70
2019-03-22T06:54:56.557Z,6.00
2019-03-22T06:57:25.111Z,6.17
2019-03-22T07:00:05.519Z,6.29
2019-03-22T07:02:24.179Z,6.50
2019-03-22T07:04:52.590Z,6.75
2019-03-22T07:07:21.035Z,7.08
2019-03-22T07:09:49.495Z,7.72
2019-03-22T07:12:18.098Z,8.40
2019-03-22T07:14:46.535Z,8.89
2019-03-22T07:17:15.278Z,9.60
2019-03-22T07:19:43.683Z,10.28
2019-03-22T07:22:12.163Z,11.99
2019-03-22T07:24:40.500Z,13.52
2019-03-22T07:27:08.842Z,15.37
2019-03-22T07:29:37.368Z,15.74
2019-03-22T07:32:05.718Z,15.74
2019-03-22T07:34:35.917Z,15.54
2019-03-22T07:37:04.224Z,15.54
2019-03-22T07:39:32.734Z,17.26
2019-03-22T07:42:01.174Z,18.86
2019-03-22T07:44:29.677Z,18.84
2019-03-22T07:46:58.080Z,19.38
2019-03-22T07:49:26.423Z,21.77
2019-03-22T07:51:55.273Z,23.93
2019-03-22T07:54:23.659Z,23.91
2019-03-22T07:56:52.030Z,23.34
2019-03-22T07:59:20.511Z,24.54
2019-03-22T08:01:49.083Z,23.39
2019-03-22T08:04:17.534Z,21.67
2019-03-22T08:06:46.241Z,23.25
2019-03-22T08:09:14.704Z,20.82
2019-03-22T08:11:43.118Z,20.02
2019-03-22T08:14:11.677Z,21.04
2019-03-22T08:16:40.062Z,21.82
2019-03-22T08:19:08.421Z,21.26
2019-03-22T08:21:37.168Z,21.25
2019-03-22T08:24:05.511Z,21.05
2019-03-22T08:26:33.928Z,20.94
2019-03-22T08:29:02.470Z,21.83
2019-03-22T08:31:30.775Z,22.88
2019-03-22T08:33:59.377Z,23.01
2019-03-22T08:36:28.089Z,22.88
2019-03-22T08:38:56.591Z,24.95
2019-03-22T08:41:24.953Z,24.86
2019-03-22T08:43:53.461Z,24.84
2019-03-22T08:46:21.924Z,24.18
2019-03-22T08:48:51.334Z,24.03
2019-03-22T08:51:19.756Z,24.43
2019-03-22T08:53:55.107Z,26.71
2019-03-22T08:56:18.473Z,26.54
2019-03-22T08:58:46.946Z,26.65
2019-03-22T09:01:15.523Z,28.87
2019-03-22T09:03:43.977Z,27.63
2019-03-22T09:06:12.459Z,30.51
2019-03-22T09:08:40.893Z,28.07
2019-03-22T09:11:09.300Z,28.35
2019-03-22T09:13:37.904Z,29.22
2019-03-22T09:16:06.266Z,27.64
2019-03-22T09:18:34.708Z,28.81
2019-03-22T09:21:03.478Z,28.01
2019-03-22T09:23:32.067Z,28.50
2019-03-22T09:26:00.583Z,29.15
2019-03-22T09:28:29.240Z,31.15
2019-03-22T09:31:09.742Z,30.89
2019-03-22T09:33:28.006Z,31.79
2019-03-22T09:35:56.531Z,30.89
2019-03-22T09:38:25.064Z,30.51
2019-03-22T09:40:53.380Z,27.74
2019-03-22T09:43:21.761Z,27.72
2019-03-22T09:45:50.268Z,27.30
2019-03-22T09:48:18.818Z,28.00
2019-03-22T09:50:47.435Z,27.84
2019-03-22T09:53:16.915Z,28.26
2019-03-22T09:55:45.385Z,30.79
2019-03-22T09:58:13.962Z,30.49
2019-03-22T10:00:42.365Z,30.78
2019-03-22T10:03:10.935Z,29.90
2019-03-22T10:05:39.295Z,31.54
2019-03-22T10:08:07.895Z,30.33
2019-03-22T10:10:36.327Z,32.73
2019-03-22T10:13:04.847Z,31.47
2019-03-22T10:15:33.349Z,30.45
2019-03-22T10:18:02.210Z,29.77
2019-03-22T10:20:30.754Z,31.45
2019-03-22T10:22:59.276Z,30.22
2019-03-22T10:25:27.730Z,29.54
2019-03-22T10:27:56.159Z,30.70
2019-03-22T10:30:24.659Z,30.37
2019-03-22T10:32:53.059Z,30.07
2019-03-22T10:35:26.262Z,29.97
2019-03-22T10:38:00.083Z,30.08
2019-03-22T10:40:22.150Z,31.34
2019-03-22T10:42:50.781Z,29.71
2019-03-22T10:45:19.339Z,29.64
2019-03-22T10:47:47.904Z,30.15
2019-03-22T10:50:16.540Z,31.86
2019-03-22T10:52:48.196Z,32.26
2019-03-22T10:55:29.322Z,32.34
2019-03-22T10:57:47.316Z,33.23
2019-03-22T11:00:16.925Z,33.28
2019-03-22T11:02:45.489Z,32.78
2019-03-22T11:05:13.984Z,30.95
2019-03-22T11:07:42.666Z,31.22
2019-03-22T11:10:13.539Z,30.28
2019-03-22T11:12:41.756Z,30.12
2019-03-22T11:15:11.211Z,30.80
2019-03-22T11:17:39.680Z,29.56
2019-03-22T11:20:10.292Z,30.43
2019-03-22T11:22:38.981Z,30.13
2019-03-22T11:25:09.137Z,31.81
2019-03-22T11:27:37.698Z,30.07
2019-03-22T11:30:08.078Z,30.48
2019-03-22T11:32:37.088Z,31.82
2019-03-22T11:35:06.926Z,32.64
2019-03-22T11:37:35.573Z,31.57
2019-03-22T11:40:04.947Z,32.23
2019-03-22T11:42:33.594Z,31.63
2019-03-22T11:45:02.126Z,33.40
2019-03-22T11:47:31.619Z,33.37
2019-03-22T11:49:59.885Z,34.56
2019-03-22T11:52:28.696Z,33.39
2019-03-22T11:54:57.336Z,33.93
2019-03-22T11:57:25.957Z,32.23
2019-03-22T11:59:54.200Z,32.99
2019-03-22T12:02:24.087Z,33.02
2019-03-22T12:04:53.651Z,35.56
2019-03-22T12:07:22.011Z,35.67
2019-03-22T12:09:50.500Z,34.26
2019-03-22T12:12:19.021Z,34.79
2019-03-22T12:14:47.643Z,34.48
2019-03-22T12:17:16.382Z,34.82
2019-03-22T12:19:44.839Z,33.81
2019-03-22T12:22:13.458Z,32.01
2019-03-22T12:24:41.693Z,31.49
2019-03-22T12:27:11.216Z,32.02
2019-03-22T12:29:39.576Z,32.54
2019-03-22T12:32:08.079Z,31.87
2019-03-22T12:34:36.462Z,32.04
2019-03-22T12:37:05.037Z,32.74
2019-03-22T12:39:33.585Z,30.40
2019-03-22T12:42:01.949Z,30.19
2019-03-22T12:44:30.276Z,31.69
2019-03-22T12:46:58.970Z,31.24
2019-03-22T12:49:29.135Z,31.45
2019-03-22T12:51:57.846Z,30.59
2019-03-22T12:54:26.559Z,30.98
2019-03-22T12:56:55.287Z,31.85
2019-03-22T12:59:23.828Z,33.57
2019-03-22T13:01:52.460Z,33.80
2019-03-22T13:04:21.019Z,33.94
2019-03-22T13:06:49.630Z,33.81
2019-03-22T13:09:18.052Z,32.24
2019-03-22T13:11:46.923Z,33.98
2019-03-22T13:14:15.440Z,33.52
2019-03-22T13:16:44.013Z,32.37
2019-03-22T13:19:12.323Z,29.78
2019-03-22T13:21:40.870Z,30.70
2019-03-22T13:24:09.624Z,31.92
2019-03-22T13:26:38.069Z,32.16
2019-03-22T13:29:06.584Z,31.81
2019-03-22T13:31:34.892Z,31.60
2019-03-22T13:34:03.547Z,32.93
2019-03-22T13:36:32.289Z,32.05
2019-03-22T13:39:00.853Z,32.00
2019-03-22T13:41:31.122Z,31.20
2019-03-22T13:43:59.768Z,30.99
2019-03-22T13:46:28.460Z,30.03
2019-03-22T13:48:56.979Z,28.91
2019-03-22T13:51:25.354Z,28.30
2019-03-22T13:53:53.804Z,29.46
2019-03-22T13:56:22.337Z,28.52
2019-03-22T13:58:50.869Z,28.54
2019-03-22T14:01:19.258Z,29.14
2019-03-22T14:03:47.806Z,28.95
2019-03-22T14:06:16.467Z,29.31
2019-03-22T14:08:44.969Z,30.09
2019-03-22T14:11:13.617Z,30.17
2019-03-22T14:13:42.039Z,29.98
2019-03-22T14:16:10.654Z,30.65
2019-03-22T14:18:39.037Z,30.29
2019-03-22T14:21:07.542Z,30.23
2019-03-22T14:23:35.832Z,29.85
2019-03-22T14:26:04.453Z,29.28
2019-03-22T14:28:33.340Z,28.84
2019-03-22T14:31:01.688Z,28.60
2019-03-22T14:33:30.288Z,27.74
2019-03-22T14:35:59.229Z,27.28
2019-03-22T14:38:27.567Z,26.83
2019-03-22T14:40:56.222Z,26.92
2019-03-22T14:43:24.799Z,26.89
2019-03-22T14:45:56.005Z,26.04
2019-03-22T14:48:24.557Z,25.20
2019-03-22T14:50:54.748Z,24.35
2019-03-22T14:53:23.002Z,24.09
2019-03-22T14:55:51.594Z,23.62
2019-03-22T14:58:20.085Z,23.18
2019-03-22T15:00:49.074Z,22.76
2019-03-22T15:03:24.068Z,22.25
2019-03-22T15:05:54.775Z,22.02
2019-03-22T15:08:23.437Z,22.02
2019-03-22T15:10:51.790Z,21.89
2019-03-22T15:13:23.314Z,21.45
2019-03-22T15:16:10.059Z,20.98
2019-03-22T15:18:56.416Z,20.87
2019-03-22T15:21:59.459Z,20.74
2019-03-22T15:24:59.673Z,20.39
2019-03-22T15:27:46.084Z,20.13
2019-03-22T15:30:32.797Z,19.75
2019-03-22T15:33:34.218Z,19.60
2019-03-22T15:36:09.981Z,19.34
2019-03-22T15:39:00.998Z,19.24
2019-03-22T15:41:30.604Z,19.24
2019-03-22T15:44:00.045Z,19.09
2019-03-22T15:46:28.583Z,18.92
2019-03-22T15:48:57.197Z,18.83
2019-03-22T15:51:25.828Z,18.85
2019-03-22T15:53:54.365Z,18.76
2019-03-22T15:56:22.972Z,18.70
2019-03-22T15:58:51.438Z,18.68
2019-03-22T16:01:19.984Z,18.46
2019-03-22T16:03:48.504Z,18.36
2019-03-22T16:06:16.882Z,18.17
2019-03-22T16:08:45.349Z,18.08
2019-03-22T16:11:13.917Z,18.05
2019-03-22T16:13:42.908Z,17.94
2019-03-22T16:16:11.482Z,17.80
2019-03-22T16:18:39.983Z,17.68
2019-03-22T16:21:08.550Z,17.62
2019-03-22T16:23:36.937Z,17.52
2019-03-22T16:26:05.635Z,17.42
2019-03-22T16:28:34.271Z,17.27
2019-03-22T16:31:02.865Z,17.13
2019-03-22T16:33:31.389Z,17.03
2019-03-22T16:35:59.826Z,16.83
2019-03-22T16:38:28.464Z,16.60
2019-03-22T16:40:56.874Z,16.41
2019-03-22T16:43:25.509Z,16.18
2019-03-22T16:45:53.999Z,16.03
2019-03-22T16:48:22.478Z,15.71
2019-03-22T16:50:51.214Z,15.50
2019-03-22T16:53:19.680Z,15.31
2019-03-22T16:55:48.405Z,15.14
2019-03-22T16:58:16.738Z,14.89
2019-03-22T17:00:45.215Z,14.75
2019-03-22T17:03:13.652Z,14.45
2019-03-22T17:05:42.475Z,14.32
2019-03-22T17:08:11.021Z,14.12
2019-03-22T17:10:39.525Z,13.96
2019-03-22T17:13:08.074Z,13.73
2019-03-22T17:15:36.591Z,13.58
2019-03-22T17:18:05.101Z,13.43
2019-03-22T17:20:33.616Z,13.28
2019-03-22T17:23:02.037Z,13.03
2019-03-22T17:25:30.931Z,13.01
2019-03-22T17:27:59.415Z,12.77
2019-03-22T17:30:27.869Z,12.65
2019-03-22T17:32:56.401Z,12.60
2019-03-22T17:35:24.941Z,12.45
2019-03-22T17:37:53.279Z,12.35
2019-03-22T17:40:21.633Z,12.24
2019-03-22T17:42:50.056Z,12.13
2019-03-22T17:45:18.613Z,12.07
2019-03-22T17:47:47.393Z,11.99
2019-03-22T17:50:16.305Z,11.92
2019-03-22T17:52:44.827Z,11.76
2019-03-22T17:55:13.392Z,11.59
2019-03-22T17:57:41.838Z,11.43
2019-03-22T18:00:10.567Z,11.40
2019-03-22T18:02:39.194Z,11.18
2019-03-22T18:05:10.171Z,11.15
2019-03-22T18:07:38.551Z,11.14
2019-03-22T18:10:07.560Z,11.02
2019-03-22T18:12:36.132Z,10.92
2019-03-22T18:15:05.846Z,10.81
2019-03-22T18:17:34.490Z,10.62
2019-03-22T18:20:03.564Z,10.45
2019-03-22T18:22:32.016Z,10.37
2019-03-22T18:25:00.347Z,10.28
2019-03-22T18:27:31.688Z,10.27
2019-03-22T18:30:00.038Z,10.09
2019-03-22T18:32:28.500Z,9.94
2019-03-22T18:34:57.812Z,9.82
2019-03-22T18:37:26.247Z,9.76
2019-03-22T18:39:54.479Z,9.71
2019-03-22T18:42:22.749Z,9.66
2019-03-22T18:44:51.259Z,9.63
2019-03-22T18:47:19.851Z,9.61
2019-03-22T18:49:48.195Z,9.48
2019-03-22T18:52:16.718Z,9.40
2019-03-22T18:54:45.266Z,9.37
2019-03-22T18:57:13.867Z,9.28
2019-03-22T18:59:42.137Z,9.22
2019-03-22T19:02:10.994Z,9.03
2019-03-22T19:04:43.912Z,9.11
2019-03-22T19:07:09.734Z,9.12
2019-03-22T19:09:38.401Z,9.07
2019-03-22T19:12:07.037Z,9.04
2019-03-22T19:14:35.391Z,8.90
2019-03-22T19:17:04.133Z,8.87
2019-03-22T19:19:32.422Z,8.78
2019-03-22T19:22:00.799Z,8.74
2019-03-22T19:24:29.308Z,8.69
2019-03-22T19:26:57.715Z,8.62
2019-03-22T19:29:25.947Z,8.55
2019-03-22T19:31:54.431Z,8.54
2019-03-22T19:34:22.957Z,8.49
2019-03-22T19:36:51.521Z,8.49
2019-03-22T19:39:19.899Z,8.37
2019-03-22T19:41:49.591Z,8.23
2019-03-22T19:44:17.936Z,8.07
2019-03-22T19:46:46.444Z,8.07
2019-03-22T19:49:15.169Z,8.01
2019-03-22T19:51:43.516Z,7.90
2019-03-22T19:54:11.921Z,7.76
2019-03-22T19:56:40.467Z,7.69
2019-03-22T19:59:09.119Z,7.68
2019-03-22T20:01:37.584Z,7.63
2019-03-22T20:04:06.265Z,7.57
2019-03-22T20:06:34.699Z,7.50
2019-03-22T20:09:07.026Z,7.41
2019-03-22T20:11:36.038Z,7.36
2019-03-22T20:14:04.497Z,7.25
2019-03-22T20:16:33.241Z,7.19
2019-03-22T20:19:01.681Z,7.28
2019-03-22T20:21:31.794Z,7.21
2019-03-22T20:24:00.054Z,7.23
2019-03-22T20:26:28.434Z,7.17
2019-03-22T20:28:56.974Z,7.07
2019-03-22T20:31:25.488Z,6.97
2019-03-22T20:33:54.266Z,6.83
2019-03-22T20:36:22.688Z,6.81
2019-03-22T20:38:50.989Z,6.73
2019-03-22T20:41:19.458Z,6.70
2019-03-22T20:43:48.037Z,6.62
2019-03-22T20:46:16.664Z,6.56
2019-03-22T20:48:45.312Z,6.52
2019-03-22T20:51:13.890Z,6.53
2019-03-22T20:53:42.430Z,6.55
2019-03-22T20:56:10.936Z,6.47
2019-03-22T20:58:39.885Z,6.53
2019-03-22T21:01:08.180Z,6.48
2019-03-22T21:03:37.004Z,6.39
2019-03-22T21:06:05.704Z,6.36
2019-03-22T21:08:34.224Z,6.30
2019-03-22T21:11:02.623Z,6.24
2019-03-22T21:13:31.155Z,6.12
2019-03-22T21:15:59.839Z,6.07
2019-03-22T21:18:28.353Z,6.00
2019-03-22T21:20:56.724Z,5.85
2019-03-22T21:23:35.763Z,5.94
2019-03-22T21:25:55.554Z,5.91
2019-03-22T21:28:23.951Z,5.87
2019-03-22T21:30:52.344Z,5.82
2019-03-22T21:33:20.690Z,5.75
2019-03-22T21:35:49.029Z,5.64
2019-03-22T21:38:17.569Z,5.72
2019-03-22T21:40:45.896Z,5.73
2019-03-22T21:43:14.195Z,5.63
2019-03-22T21:45:42.692Z,5.58
2019-03-22T21:48:11.058Z,5.56
2019-03-22T21:50:39.348Z,5.48
2019-03-22T21:53:07.893Z,5.48
2019-03-22T21:55:36.431Z,5.50
2019-03-22T21:58:04.874Z,5.45
2019-03-22T22:00:33.401Z,5.43
2019-03-22T22:03:04.711Z,5.41
2019-03-22T22:05:34.111Z,5.39
2019-03-22T22:08:02.898Z,5.39
2019-03-22T22:10:31.210Z,5.39
2019-03-22T22:12:59.655Z,5.45
2019-03-22T22:15:28.177Z,5.41
2019-03-22T22:17:56.548Z,5.42
2019-03-22T22:20:28.995Z,5.36
2019-03-22T22:22:55.197Z,5.32
2019-03-22T22:25:23.808Z,5.22
2019-03-22T22:27:52.200Z,5.18
2019-03-22T22:30:20.687Z,5.17
2019-03-22T22:32:49.042Z,5.13
2019-03-22T22:35:17.419Z,5.11
2019-03-22T22:37:46.131Z,5.12
2019-03-22T22:40:14.520Z,5.10
2019-03-22T22:42:43.082Z,5.06
2019-03-22T22:45:11.588Z,5.04
2019-03-22T22:47:39.958Z,5.05
2019-03-22T22:50:09.085Z,4.97
2019-03-22T22:52:37.527Z,4.93
2019-03-22T22:55:06.489Z,4.86
2019-03-22T22:57:34.986Z,4.79
2019-03-22T23:00:03.668Z,4.75
2019-03-22T23:02:32.601Z,4.68
2019-03-22T23:05:00.987Z,4.67
2019-03-22T23:07:29.529Z,4.66
2019-03-22T23:09:57.969Z,4.59
2019-03-22T23:12:26.299Z,4.59
2019-03-22T23:14:54.576Z,4.63
2019-03-22T23:17:22.892Z,4.65
2019-03-22T23:19:51.665Z,4.49
2019-03-22T23:22:20.029Z,4.47
2019-03-22T23:24:48.626Z,4.50
2019-03-22T23:27:16.976Z,4.55
2019-03-22T23:29:45.610Z,4.45
2019-03-22T23:32:14.143Z,4.33
2019-03-22T23:34:42.578Z,4.27
2019-03-22T23:37:10.968Z,4.22
2019-03-22T23:39:39.607Z,4.18
2019-03-22T23:42:08.062Z,4.18
2019-03-22T23:44:36.592Z,4.12
2019-03-22T23:47:04.962Z,4.09
2019-03-22T23:49:33.663Z,4.03
2019-03-22T23:52:02.167Z,4.00
2019-03-22T23:54:30.561Z,3.98
2019-03-22T23:56:59.029Z,3.98
2019-03-22T23:59:27.700Z,4.05
